createdAt,value
2022-09-18T00:01:42.831Z,86.55
2022-09-18T00:04:16.508Z,86.62
2022-09-18T00:06:47.425Z,86.65
2022-09-18T00:09:16.080Z,86.65
2022-09-18T00:11:49.886Z,86.57
2022-09-18T00:14:22.135Z,86.52
2022-09-18T00:16:50.934Z,86.46
2022-09-18T00:19:20.917Z,86.57
2022-09-18T00:21:50.977Z,86.59
2022-09-18T00:24:20.405Z,86.50
2022-09-18T00:26:48.374Z,86.73
2022-09-18T00:29:17.603Z,86.49
2022-09-18T00:31:48.577Z,86.68
2022-09-18T00:34:17.738Z,86.88
2022-09-18T00:36:45.538Z,87.05
2022-09-18T00:39:13.514Z,86.93
2022-09-18T00:41:44.256Z,87.13
2022-09-18T00:44:34.855Z,87.23
2022-09-18T00:47:11.810Z,87.26
2022-09-18T00:49:44.378Z,87.46
2022-09-18T00:52:15.148Z,87.38
2022-09-18T00:54:47.951Z,87.43
2022-09-18T00:57:19.886Z,87.53
2022-09-18T00:59:49.959Z,87.64
2022-09-18T01:02:18.366Z,87.75
2022-09-18T01:04:47.518Z,87.78
2022-09-18T01:07:34.145Z,87.79
2022-09-18T01:10:14.071Z,87.76
2022-09-18T01:12:52.580Z,87.73
2022-09-18T01:15:23.381Z,87.74
2022-09-18T01:18:05.807Z,87.92
2022-09-18T01:20:40.363Z,87.99
2022-09-18T01:23:15.495Z,87.97
2022-09-18T01:26:01.821Z,87.93
2022-09-18T01:28:49.235Z,87.90
2022-09-18T01:31:28.419Z,87.81
2022-09-18T01:34:24.689Z,87.85
2022-09-18T01:37:05.603Z,87.89
2022-09-18T01:39:47.425Z,88.11
2022-09-18T01:42:19.912Z,88.09
2022-09-18T01:44:49.726Z,88.00
2022-09-18T01:47:20.833Z,87.93
2022-09-18T01:49:53.499Z,88.01
2022-09-18T01:52:52.201Z,88.07
2022-09-18T01:55:28.057Z,88.06
2022-09-18T01:58:03.317Z,88.15
2022-09-18T02:00:32.030Z,88.13
2022-09-18T02:03:05.603Z,88.09
2022-09-18T02:05:51.591Z,88.16
2022-09-18T02:08:25.547Z,88.27
2022-09-18T02:11:00.119Z,88.21
2022-09-18T02:13:33.207Z,88.25
2022-09-18T02:16:07.739Z,88.36
2022-09-18T02:18:43.811Z,88.31
2022-09-18T02:21:17.248Z,88.42
2022-09-18T02:23:46.562Z,88.39
2022-09-18T02:26:15.101Z,88.36
2022-09-18T02:28:45.949Z,88.23
2022-09-18T02:31:14.256Z,88.16
2022-09-18T02:33:42.152Z,88.40
2022-09-18T02:36:30.159Z,88.45
2022-09-18T02:39:23.745Z,88.60
2022-09-18T02:42:10.401Z,88.50
2022-09-18T02:45:00.639Z,87.97
2022-09-18T02:47:50.517Z,88.04
2022-09-18T02:50:22.363Z,88.24
2022-09-18T02:52:58.793Z,88.42
2022-09-18T02:55:42.983Z,88.67
2022-09-18T02:58:19.491Z,88.47
2022-09-18T03:00:51.831Z,88.62
2022-09-18T03:03:28.101Z,88.72
2022-09-18T03:06:01.474Z,88.87
2022-09-18T03:08:31.083Z,88.71
2022-09-18T03:10:59.160Z,88.87
2022-09-18T03:13:28.647Z,88.88
2022-09-18T03:15:56.883Z,88.88
2022-09-18T03:18:27.113Z,88.56
2022-09-18T03:20:57.441Z,88.65
2022-09-18T03:23:25.244Z,88.65
2022-09-18T03:25:59.765Z,88.75
2022-09-18T03:28:27.646Z,88.66
2022-09-18T03:30:55.561Z,88.93
2022-09-18T03:33:23.615Z,88.86
2022-09-18T03:35:51.353Z,89.07
2022-09-18T03:38:19.138Z,89.07
2022-09-18T03:40:47.928Z,89.21
2022-09-18T03:43:17.074Z,89.11
2022-09-18T03:45:45.054Z,89.29
2022-09-18T03:48:14.041Z,89.34
2022-09-18T03:50:41.744Z,89.32
2022-09-18T03:53:09.683Z,89.26
2022-09-18T03:55:43.627Z,89.17
2022-09-18T03:58:49.549Z,88.93
2022-09-18T04:01:39.518Z,88.96
2022-09-18T04:04:27.801Z,88.80
2022-09-18T04:07:14.614Z,88.59
2022-09-18T04:09:47.976Z,88.51
2022-09-18T04:12:16.683Z,88.50
2022-09-18T04:14:45.864Z,88.49
2022-09-18T04:17:14.906Z,88.41
2022-09-18T04:19:42.789Z,88.37
2022-09-18T04:22:10.723Z,88.43
2022-09-18T04:24:39.774Z,88.39
2022-09-18T04:27:07.904Z,88.34
2022-09-18T04:29:35.894Z,88.23
2022-09-18T04:32:05.568Z,88.15
2022-09-18T04:34:33.497Z,88.16
2022-09-18T04:37:01.198Z,88.14
2022-09-18T04:39:29.120Z,88.15
2022-09-18T04:41:59.755Z,87.97
2022-09-18T04:44:27.963Z,87.93
2022-09-18T04:46:55.932Z,87.91
2022-09-18T04:49:24.147Z,87.85
2022-09-18T04:51:51.890Z,87.61
2022-09-18T04:54:19.678Z,87.28
2022-09-18T04:56:47.745Z,87.33
2022-09-18T04:59:15.998Z,87.42
2022-09-18T05:01:45.850Z,87.35
2022-09-18T05:04:14.629Z,87.46
2022-09-18T05:06:52.726Z,87.38
2022-09-18T05:09:20.822Z,87.30
2022-09-18T05:11:49.042Z,87.16
2022-09-18T05:14:17.156Z,87.35
2022-09-18T05:16:48.453Z,87.29
2022-09-18T05:19:25.552Z,87.30
2022-09-18T05:21:59.378Z,87.35
2022-09-18T05:24:27.266Z,87.16
2022-09-18T05:26:55.054Z,87.28
2022-09-18T05:29:23.551Z,87.10
2022-09-18T05:31:52.572Z,87.10
2022-09-18T05:34:20.399Z,86.73
2022-09-18T05:36:48.272Z,86.53
2022-09-18T05:39:17.807Z,86.66
2022-09-18T05:41:49.912Z,86.63
2022-09-18T05:44:18.572Z,86.73
2022-09-18T05:46:48.140Z,86.72
2022-09-18T05:49:17.002Z,86.63
2022-09-18T05:51:46.519Z,86.46
2022-09-18T05:54:15.770Z,86.31
2022-09-18T05:56:48.543Z,86.20
2022-09-18T05:59:17.143Z,85.98
2022-09-18T06:01:47.639Z,86.02
2022-09-18T06:04:23.202Z,85.97
2022-09-18T06:07:03.216Z,85.77
2022-09-18T06:09:31.391Z,85.59
2022-09-18T06:12:00.277Z,85.40
2022-09-18T06:14:28.249Z,85.27
2022-09-18T06:16:58.277Z,85.18
2022-09-18T06:19:26.470Z,85.09
2022-09-18T06:21:54.292Z,84.87
2022-09-18T06:24:22.586Z,84.69
2022-09-18T06:27:10.723Z,84.64
2022-09-18T06:29:39.809Z,84.57
2022-09-18T06:32:13.368Z,84.34
2022-09-18T06:34:41.785Z,84.37
2022-09-18T06:37:12.628Z,84.30
2022-09-18T06:39:41.334Z,84.20
2022-09-18T06:42:09.814Z,84.13
2022-09-18T06:44:56.223Z,84.09
2022-09-18T06:47:26.992Z,84.02
2022-09-18T06:49:56.018Z,83.77
2022-09-18T06:52:23.867Z,83.42
2022-09-18T06:54:54.839Z,83.32
2022-09-18T06:57:32.536Z,83.15
2022-09-18T07:00:00.630Z,83.34
2022-09-18T07:02:32.371Z,83.34
2022-09-18T07:05:20.892Z,83.01
2022-09-18T07:07:48.819Z,82.66
2022-09-18T07:10:17.656Z,82.59
2022-09-18T07:12:49.210Z,82.36
2022-09-18T07:15:19.834Z,82.45
2022-09-18T07:17:47.835Z,82.71
2022-09-18T07:20:17.507Z,82.52
2022-09-18T07:22:52.994Z,82.46
2022-09-18T07:25:21.840Z,82.58
2022-09-18T07:27:50.045Z,82.42
2022-09-18T07:30:18.531Z,82.56
2022-09-18T07:32:46.721Z,82.39
2022-09-18T07:35:16.499Z,82.35
2022-09-18T07:37:44.583Z,82.20
2022-09-18T07:40:18.234Z,82.11
2022-09-18T07:43:10.227Z,82.08
2022-09-18T07:45:49.851Z,82.29
2022-09-18T07:48:17.918Z,82.33
2022-09-18T07:50:48.142Z,82.31
2022-09-18T07:53:17.759Z,82.08
2022-09-18T07:55:48.208Z,81.58
2022-09-18T07:58:16.107Z,81.48
2022-09-18T08:01:10.466Z,81.45
2022-09-18T08:03:46.331Z,81.44
2022-09-18T08:06:14.355Z,80.98
2022-09-18T08:08:55.161Z,81.11
2022-09-18T08:11:31.109Z,80.59
2022-09-18T08:14:08.532Z,80.70
2022-09-18T08:16:40.657Z,80.54
2022-09-18T08:19:18.090Z,80.10
2022-09-18T08:22:09.540Z,80.27
2022-09-18T08:24:42.679Z,79.90
2022-09-18T08:27:11.286Z,79.96
2022-09-18T08:29:40.533Z,79.81
2022-09-18T08:32:11.111Z,79.92
2022-09-18T08:34:41.779Z,79.28
2022-09-18T08:37:12.694Z,79.38
2022-09-18T08:40:23.364Z,79.26
2022-09-18T08:43:14.342Z,79.22
2022-09-18T08:45:52.938Z,78.87
2022-09-18T08:48:30.362Z,79.06
2022-09-18T08:51:12.017Z,78.46
2022-09-18T08:53:46.131Z,78.20
2022-09-18T08:56:35.773Z,77.93
2022-09-18T08:59:44.591Z,78.41
2022-09-18T09:02:25.363Z,78.15
2022-09-18T09:04:59.280Z,78.01
2022-09-18T09:07:56.839Z,78.10
2022-09-18T09:10:40.589Z,77.66
2022-09-18T09:13:21.226Z,76.37
2022-09-18T09:16:01.946Z,76.17
2022-09-18T09:18:44.025Z,76.02
2022-09-18T09:21:22.172Z,75.87
2022-09-18T09:24:17.671Z,75.99
2022-09-18T09:27:26.149Z,75.81
2022-09-18T09:30:17.277Z,75.56
2022-09-18T09:33:21.543Z,74.59
2022-09-18T09:36:15.958Z,73.40
2022-09-18T09:38:59.109Z,73.55
2022-09-18T09:41:42.292Z,73.34
2022-09-18T09:44:26.283Z,73.24
2022-09-18T09:47:08.673Z,73.46
2022-09-18T09:50:08.620Z,73.94
2022-09-18T09:52:40.230Z,73.94
2022-09-18T09:55:21.550Z,73.84
2022-09-18T09:58:16.237Z,73.37
2022-09-18T10:01:04.289Z,73.80
2022-09-18T10:04:05.115Z,73.14
2022-09-18T10:06:52.448Z,72.91
2022-09-18T10:09:34.882Z,73.49
2022-09-18T10:12:22.748Z,72.78
2022-09-18T10:14:55.005Z,72.84
2022-09-18T10:17:24.499Z,72.42
2022-09-18T10:19:53.864Z,72.11
2022-09-18T10:22:23.833Z,72.13
2022-09-18T10:25:04.202Z,72.03
2022-09-18T10:27:32.573Z,72.39
2022-09-18T10:30:04.894Z,72.32
2022-09-18T10:32:42.855Z,71.45
2022-09-18T10:35:38.522Z,71.75
2022-09-18T10:38:27.161Z,72.66
2022-09-18T10:40:55.520Z,72.18
2022-09-18T10:43:23.815Z,72.00
2022-09-18T10:45:56.334Z,71.52
2022-09-18T10:48:32.704Z,71.81
2022-09-18T10:51:03.391Z,70.87
2022-09-18T10:53:39.886Z,71.27
2022-09-18T10:56:21.010Z,71.21
2022-09-18T10:58:51.506Z,71.23
2022-09-18T11:01:21.882Z,70.89
2022-09-18T11:04:05.666Z,71.08
2022-09-18T11:06:37.981Z,70.97
2022-09-18T11:09:42.213Z,70.55
2022-09-18T11:12:23.385Z,70.23
2022-09-18T11:15:02.381Z,70.09
2022-09-18T11:17:33.806Z,69.11
2022-09-18T11:20:06.721Z,69.05
2022-09-18T11:22:48.889Z,69.25
2022-09-18T11:25:28.483Z,69.03
2022-09-18T11:28:01.740Z,68.70
2022-09-18T11:30:38.670Z,68.06
2022-09-18T11:33:30.853Z,68.21
2022-09-18T11:36:05.504Z,67.82
2022-09-18T11:38:40.390Z,68.77
2022-09-18T11:41:10.480Z,69.62
2022-09-18T11:43:43.867Z,68.26
2022-09-18T11:46:19.196Z,68.63
2022-09-18T11:49:04.723Z,68.25
2022-09-18T11:52:01.050Z,68.57
2022-09-18T11:55:01.595Z,69.06
2022-09-18T11:57:44.095Z,68.88
2022-09-18T12:00:21.666Z,69.01
2022-09-18T12:03:07.147Z,68.95
2022-09-18T12:05:44.843Z,68.81
2022-09-18T12:08:30.296Z,69.09
2022-09-18T12:11:51.015Z,68.18
2022-09-18T12:14:33.127Z,67.98
2022-09-18T12:17:40.544Z,68.96
2022-09-18T12:20:25.112Z,67.95
2022-09-18T12:22:59.391Z,68.15
2022-09-18T12:25:39.637Z,67.63
2022-09-18T12:28:55.253Z,68.43
2022-09-18T12:31:34.921Z,68.65
2022-09-18T12:34:32.053Z,69.12
2022-09-18T12:37:28.705Z,69.26
2022-09-18T12:40:26.033Z,69.55
2022-09-18T12:42:59.915Z,69.31
2022-09-18T12:45:27.918Z,69.40
2022-09-18T12:48:07.533Z,69.48
2022-09-18T12:50:45.821Z,69.43
2022-09-18T12:53:27.714Z,69.65
2022-09-18T12:56:04.434Z,69.85
2022-09-18T12:58:47.542Z,69.82
2022-09-18T13:01:27.579Z,70.02
2022-09-18T13:04:22.336Z,70.11
2022-09-18T13:06:58.260Z,70.06
2022-09-18T13:09:35.654Z,70.46
2022-09-18T13:12:12.560Z,70.61
2022-09-18T13:14:46.723Z,70.64
2022-09-18T13:17:28.900Z,70.71
2022-09-18T13:20:04.700Z,70.61
2022-09-18T13:22:37.053Z,70.73
2022-09-18T13:25:14.379Z,71.00
2022-09-18T13:27:42.436Z,70.87
2022-09-18T13:30:17.676Z,70.98
2022-09-18T13:32:45.693Z,71.10
2022-09-18T13:35:13.540Z,71.17
2022-09-18T13:37:43.739Z,71.06
2022-09-18T13:40:35.596Z,70.97
2022-09-18T13:43:28.641Z,71.00
2022-09-18T13:46:00.858Z,70.62
2022-09-18T13:48:41.254Z,70.88
2022-09-18T13:51:23.575Z,70.89
2022-09-18T13:54:13.600Z,71.01
2022-09-18T13:57:03.570Z,71.00
2022-09-18T13:59:44.158Z,71.07
2022-09-18T14:02:36.754Z,71.24
2022-09-18T14:05:08.687Z,71.22
2022-09-18T14:07:36.413Z,71.57
2022-09-18T14:10:23.357Z,71.86
2022-09-18T14:13:29.192Z,72.11
2022-09-18T14:16:09.089Z,72.15
2022-09-18T14:18:49.236Z,72.48
2022-09-18T14:21:17.148Z,72.62
2022-09-18T14:23:46.115Z,72.81
2022-09-18T14:26:29.782Z,72.91
2022-09-18T14:29:06.536Z,72.93
2022-09-18T14:31:39.619Z,73.02
2022-09-18T14:34:31.455Z,73.61
2022-09-18T14:37:02.326Z,73.82
2022-09-18T14:39:32.696Z,74.05
2022-09-18T14:42:19.924Z,74.06
2022-09-18T14:44:52.735Z,74.28
2022-09-18T14:47:24.124Z,74.32
2022-09-18T14:49:52.869Z,74.44
2022-09-18T14:52:24.740Z,74.56
2022-09-18T14:54:55.396Z,74.75
2022-09-18T14:57:42.042Z,74.59
2022-09-18T15:00:22.422Z,74.84
2022-09-18T15:02:55.114Z,75.14
2022-09-18T15:05:24.143Z,75.27
2022-09-18T15:08:16.806Z,75.47
2022-09-18T15:10:49.229Z,75.17
2022-09-18T15:13:19.464Z,75.17
2022-09-18T15:15:48.317Z,75.30
2022-09-18T15:18:27.634Z,75.12
2022-09-18T15:20:59.041Z,75.07
2022-09-18T15:23:35.722Z,75.04
2022-09-18T15:26:12.678Z,74.86
2022-09-18T15:28:45.268Z,74.78
2022-09-18T15:31:15.054Z,74.75
2022-09-18T15:34:17.941Z,74.78
2022-09-18T15:36:46.470Z,74.69
2022-09-18T15:39:45.561Z,74.73
2022-09-18T15:42:30.802Z,74.72
2022-09-18T15:45:01.645Z,74.66
2022-09-18T15:47:36.930Z,74.82
2022-09-18T15:50:17.373Z,74.78
2022-09-18T15:52:55.142Z,74.72
2022-09-18T15:55:23.808Z,74.77
2022-09-18T15:57:57.509Z,74.81
2022-09-18T16:00:32.673Z,74.85
2022-09-18T16:03:05.559Z,74.99
2022-09-18T16:05:37.193Z,75.12
2022-09-18T16:08:16.946Z,75.05
2022-09-18T16:10:51.606Z,75.05
2022-09-18T16:13:20.080Z,75.18
2022-09-18T16:16:08.578Z,75.15
2022-09-18T16:18:52.907Z,75.16
2022-09-18T16:21:22.075Z,75.34
2022-09-18T16:24:03.628Z,75.31
2022-09-18T16:26:36.569Z,75.27
2022-09-18T16:29:18.740Z,75.31
2022-09-18T16:31:50.013Z,75.34
2022-09-18T16:34:22.944Z,75.37
2022-09-18T16:36:51.934Z,75.58
2022-09-18T16:39:25.524Z,75.69
2022-09-18T16:41:53.918Z,76.15
2022-09-18T16:44:21.874Z,77.00
2022-09-18T16:46:53.878Z,77.30
2022-09-18T16:49:34.106Z,77.81
2022-09-18T16:52:02.182Z,77.77
2022-09-18T16:54:30.104Z,78.13
2022-09-18T16:57:15.578Z,78.66
2022-09-18T16:59:44.994Z,79.00
2022-09-18T17:02:15.792Z,79.46
2022-09-18T17:04:43.642Z,79.69
2022-09-18T17:07:11.645Z,79.63
2022-09-18T17:09:39.452Z,79.98
2022-09-18T17:12:07.960Z,79.29
2022-09-18T17:14:38.332Z,80.19
2022-09-18T17:17:06.344Z,80.15
2022-09-18T17:19:34.422Z,80.59
2022-09-18T17:22:02.542Z,80.64
2022-09-18T17:24:30.327Z,80.86
2022-09-18T17:26:58.765Z,81.00
2022-09-18T17:29:27.309Z,80.97
2022-09-18T17:31:55.765Z,80.88
2022-09-18T17:34:24.474Z,80.51
2022-09-18T17:36:52.414Z,80.65
2022-09-18T17:39:20.388Z,80.36
2022-09-18T17:41:48.625Z,80.67
2022-09-18T17:44:16.731Z,80.78
2022-09-18T17:46:44.638Z,80.86
2022-09-18T17:49:12.430Z,80.71
2022-09-18T17:51:40.315Z,80.41
2022-09-18T17:54:10.409Z,80.13
2022-09-18T17:56:38.624Z,80.21
2022-09-18T17:59:09.296Z,80.44
2022-09-18T18:01:40.575Z,80.62
2022-09-18T18:04:09.169Z,80.68
2022-09-18T18:06:37.447Z,80.77
2022-09-18T18:09:10.570Z,81.14
2022-09-18T18:11:39.252Z,81.29
2022-09-18T18:14:07.220Z,81.55
2022-09-18T18:16:35.369Z,81.57
2022-09-18T18:19:08.293Z,81.60
2022-09-18T18:21:36.296Z,81.81
2022-09-18T18:24:09.070Z,81.78
2022-09-18T18:26:38.756Z,82.26
2022-09-18T18:29:10.773Z,82.58
2022-09-18T18:31:40.678Z,82.80
2022-09-18T18:34:10.962Z,82.96
2022-09-18T18:36:40.952Z,83.35
2022-09-18T18:39:12.684Z,83.22
2022-09-18T18:41:41.242Z,83.34
2022-09-18T18:44:11.794Z,83.61
2022-09-18T18:46:40.324Z,83.82
2022-09-18T18:49:13.104Z,83.80
2022-09-18T18:51:48.164Z,83.54
2022-09-18T18:54:21.454Z,83.77
2022-09-18T18:56:50.092Z,83.74
2022-09-18T18:59:19.574Z,83.93
2022-09-18T19:01:48.193Z,84.13
2022-09-18T19:04:21.473Z,84.02
2022-09-18T19:06:49.690Z,84.33
2022-09-18T19:09:21.005Z,83.98
2022-09-18T19:11:50.911Z,84.05
2022-09-18T19:14:22.417Z,84.16
2022-09-18T19:16:52.070Z,84.01
2022-09-18T19:19:21.843Z,84.18
2022-09-18T19:21:49.879Z,84.08
2022-09-18T19:24:21.865Z,83.89
2022-09-18T19:26:50.434Z,83.81
2022-09-18T19:29:20.095Z,84.08
2022-09-18T19:31:49.503Z,84.20
2022-09-18T19:34:20.140Z,84.39
2022-09-18T19:36:49.205Z,84.49
2022-09-18T19:39:19.862Z,84.44
2022-09-18T19:41:52.594Z,84.33
2022-09-18T19:44:27.274Z,84.26
2022-09-18T19:46:57.994Z,84.24
2022-09-18T19:49:32.220Z,84.16
2022-09-18T19:52:00.522Z,83.86
2022-09-18T19:54:28.430Z,84.09
2022-09-18T19:56:57.416Z,84.32
2022-09-18T19:59:26.436Z,84.47
2022-09-18T20:01:55.318Z,84.58
2022-09-18T20:04:23.365Z,84.51
2022-09-18T20:06:51.224Z,84.56
2022-09-18T20:09:19.070Z,84.48
2022-09-18T20:11:48.366Z,84.30
2022-09-18T20:14:16.838Z,84.49
2022-09-18T20:16:44.910Z,84.45
2022-09-18T20:19:12.816Z,84.40
2022-09-18T20:21:40.938Z,84.32
2022-09-18T20:24:08.704Z,84.32
2022-09-18T20:26:36.839Z,84.29
2022-09-18T20:29:04.907Z,84.31
2022-09-18T20:31:33.535Z,84.25
2022-09-18T20:34:02.710Z,84.32
2022-09-18T20:36:32.438Z,84.29
2022-09-18T20:39:02.538Z,84.20
2022-09-18T20:41:31.267Z,84.10
2022-09-18T20:44:01.284Z,84.00
2022-09-18T20:46:29.374Z,84.11
2022-09-18T20:48:57.357Z,84.19
2022-09-18T20:51:36.065Z,84.37
2022-09-18T20:54:08.279Z,84.24
2022-09-18T20:56:43.344Z,84.30
2022-09-18T20:59:16.203Z,84.75
2022-09-18T21:01:46.983Z,84.92
2022-09-18T21:04:17.675Z,85.05
2022-09-18T21:06:48.906Z,85.16
2022-09-18T21:09:17.007Z,85.31
2022-09-18T21:11:45.164Z,85.30
2022-09-18T21:14:16.281Z,85.05
2022-09-18T21:16:45.214Z,85.79
2022-09-18T21:19:19.747Z,86.18
2022-09-18T21:21:49.477Z,86.18
2022-09-18T21:24:17.604Z,86.31
2022-09-18T21:26:47.927Z,86.30
2022-09-18T21:29:18.046Z,86.53
2022-09-18T21:31:47.212Z,86.79
2022-09-18T21:34:21.166Z,87.06
2022-09-18T21:36:49.746Z,87.17
2022-09-18T21:39:17.833Z,87.20
2022-09-18T21:41:48.558Z,87.22
2022-09-18T21:44:23.633Z,87.30
2022-09-18T21:46:52.314Z,87.17
2022-09-18T21:49:20.365Z,87.14
2022-09-18T21:51:48.614Z,87.16
2022-09-18T21:54:19.834Z,87.13
2022-09-18T21:56:52.053Z,87.06
2022-09-18T21:59:21.158Z,86.59
2022-09-18T22:01:50.328Z,86.28
2022-09-18T22:04:18.338Z,86.17
2022-09-18T22:06:47.061Z,86.14
2022-09-18T22:09:22.232Z,86.07
2022-09-18T22:11:52.100Z,85.92
2022-09-18T22:14:23.133Z,85.90
2022-09-18T22:16:54.055Z,85.55
2022-09-18T22:19:22.133Z,85.56
2022-09-18T22:21:51.882Z,85.42
2022-09-18T22:24:23.632Z,85.23
2022-09-18T22:26:59.768Z,84.93
2022-09-18T22:29:34.473Z,84.99
2022-09-18T22:32:03.396Z,84.61
2022-09-18T22:34:33.462Z,84.39
2022-09-18T22:37:02.179Z,84.36
2022-09-18T22:39:30.944Z,84.24
2022-09-18T22:41:58.806Z,84.24
2022-09-18T22:44:26.780Z,84.20
2022-09-18T22:46:54.834Z,84.09
2022-09-18T22:49:23.510Z,84.02
2022-09-18T22:51:52.256Z,83.97
2022-09-18T22:54:25.024Z,83.98
2022-09-18T22:56:53.399Z,83.93
2022-09-18T22:59:23.491Z,83.72
2022-09-18T23:02:04.590Z,83.79
2022-09-18T23:04:33.760Z,83.86
2022-09-18T23:07:03.452Z,83.85
2022-09-18T23:09:31.826Z,83.92
2022-09-18T23:12:00.114Z,83.91
2022-09-18T23:14:30.067Z,83.68
2022-09-18T23:16:59.675Z,83.43
2022-09-18T23:19:33.412Z,83.42
2022-09-18T23:22:01.827Z,83.25
2022-09-18T23:24:31.984Z,83.22
2022-09-18T23:26:59.799Z,82.95
2022-09-18T23:29:31.867Z,82.98
2022-09-18T23:32:00.111Z,82.85
2022-09-18T23:34:30.950Z,82.96
2022-09-18T23:36:58.946Z,82.88
2022-09-18T23:39:30.029Z,82.99
2022-09-18T23:41:59.468Z,82.88
2022-09-18T23:44:31.517Z,83.02
2022-09-18T23:47:00.548Z,82.93
2022-09-18T23:49:29.516Z,83.01
2022-09-18T23:51:59.666Z,82.88
2022-09-18T23:54:31.221Z,82.96
2022-09-18T23:56:59.100Z,82.87
2022-09-18T23:59:27.687Z,82.88
